sensor_id;sensor_type;location;lat;lon;timestamp;temperature;humidity
20829;DHT22;10575;50.124;8.582;2023-07-30T00:00:45;20.30;99.90
20829;DHT22;10575;50.124;8.582;2023-07-30T00:03:10;20.30;99.90
20829;DHT22;10575;50.124;8.582;2023-07-30T00:05:36;20.20;99.90
20829;DHT22;10575;50.124;8.582;2023-07-30T00:08:01;20.20;99.90
20829;DHT22;10575;50.124;8.582;2023-07-30T00:10:27;20.10;99.90
20829;DHT22;10575;50.124;8.582;2023-07-30T00:12:52;20.10;99.90
20829;DHT22;10575;50.124;8.582;2023-07-30T00:15:18;20.10;99.90
20829;DHT22;10575;50.124;8.582;2023-07-30T00:17:43;19.90;99.90
20829;DHT22;10575;50.124;8.582;2023-07-30T00:20:09;19.80;99.90
20829;DHT22;10575;50.124;8.582;2023-07-30T00:22:35;19.70;99.90
20829;DHT22;10575;50.124;8.582;2023-07-30T00:25:00;19.80;99.90
20829;DHT22;10575;50.124;8.582;2023-07-30T00:27:26;19.90;99.90
20829;DHT22;10575;50.124;8.582;2023-07-30T00:29:51;20.00;99.90
20829;DHT22;10575;50.124;8.582;2023-07-30T00:34:52;20.30;99.90
20829;DHT22;10575;50.124;8.582;2023-07-30T00:37:18;20.40;99.90
20829;DHT22;10575;50.124;8.582;2023-07-30T00:39:44;20.40;99.90
20829;DHT22;10575;50.124;8.582;2023-07-30T00:42:10;20.50;99.90
20829;DHT22;10575;50.124;8.582;2023-07-30T00:44:35;20.40;99.90
20829;DHT22;10575;50.124;8.582;2023-07-30T00:47:03;20.30;99.90
20829;DHT22;10575;50.124;8.582;2023-07-30T00:49:29;20.30;99.90
20829;DHT22;10575;50.124;8.582;2023-07-30T00:51:55;20.10;99.90
20829;DHT22;10575;50.124;8.582;2023-07-30T00:54:22;20.10;99.90
20829;DHT22;10575;50.124;8.582;2023-07-30T00:56:51;20.10;99.90
20829;DHT22;10575;50.124;8.582;2023-07-30T00:59:18;20.10;99.90
20829;DHT22;10575;50.124;8.582;2023-07-30T01:01:46;20.20;99.90
20829;DHT22;10575;50.124;8.582;2023-07-30T01:04:12;20.30;99.90
20829;DHT22;10575;50.124;8.582;2023-07-30T01:06:38;20.30;99.90
20829;DHT22;10575;50.124;8.582;2023-07-30T01:09:04;20.30;99.90
20829;DHT22;10575;50.124;8.582;2023-07-30T01:11:29;20.30;99.90
20829;DHT22;10575;50.124;8.582;2023-07-30T01:13:55;20.30;99.90
20829;DHT22;10575;50.124;8.582;2023-07-30T01:16:22;20.30;99.90
20829;DHT22;10575;50.124;8.582;2023-07-30T01:18:48;20.30;99.90
20829;DHT22;10575;50.124;8.582;2023-07-30T01:21:13;20.30;99.90
20829;DHT22;10575;50.124;8.582;2023-07-30T01:23:39;20.30;99.90
20829;DHT22;10575;50.124;8.582;2023-07-30T01:26:11;20.30;99.90
20829;DHT22;10575;50.124;8.582;2023-07-30T01:28:43;20.30;99.90
20829;DHT22;10575;50.124;8.582;2023-07-30T01:31:14;20.30;99.90
20829;DHT22;10575;50.124;8.582;2023-07-30T01:33:41;20.20;99.90
20829;DHT22;10575;50.124;8.582;2023-07-30T01:36:10;20.20;99.90
20829;DHT22;10575;50.124;8.582;2023-07-30T01:38:40;20.00;99.90
20829;DHT22;10575;50.124;8.582;2023-07-30T01:41:06;20.00;99.90
20829;DHT22;10575;50.124;8.582;2023-07-30T01:43:31;20.00;99.90
20829;DHT22;10575;50.124;8.582;2023-07-30T01:45:57;20.10;99.90
20829;DHT22;10575;50.124;8.582;2023-07-30T01:48:22;20.10;99.90
20829;DHT22;10575;50.124;8.582;2023-07-30T01:50:48;20.10;99.90
20829;DHT22;10575;50.124;8.582;2023-07-30T01:53:14;20.10;99.90
20829;DHT22;10575;50.124;8.582;2023-07-30T01:55:39;20.10;99.90
20829;DHT22;10575;50.124;8.582;2023-07-30T01:58:09;20.10;99.90
20829;DHT22;10575;50.124;8.582;2023-07-30T02:00:35;20.10;99.90
20829;DHT22;10575;50.124;8.582;2023-07-30T02:03:16;20.20;99.90
20829;DHT22;10575;50.124;8.582;2023-07-30T02:05:41;20.30;99.90
20829;DHT22;10575;50.124;8.582;2023-07-30T02:08:07;20.30;99.90
20829;DHT22;10575;50.124;8.582;2023-07-30T02:10:34;20.30;99.90
20829;DHT22;10575;50.124;8.582;2023-07-30T02:13:00;20.30;99.90
20829;DHT22;10575;50.124;8.582;2023-07-30T02:15:25;20.30;99.90
20829;DHT22;10575;50.124;8.582;2023-07-30T02:17:51;20.40;99.90
20829;DHT22;10575;50.124;8.582;2023-07-30T02:20:16;20.40;99.90
20829;DHT22;10575;50.124;8.582;2023-07-30T02:22:42;20.40;99.90
20829;DHT22;10575;50.124;8.582;2023-07-30T02:25:07;20.50;99.90
20829;DHT22;10575;50.124;8.582;2023-07-30T02:27:33;20.40;99.90
20829;DHT22;10575;50.124;8.582;2023-07-30T02:29:58;20.40;99.90
20829;DHT22;10575;50.124;8.582;2023-07-30T02:32:24;20.40;99.90
20829;DHT22;10575;50.124;8.582;2023-07-30T02:34:49;20.40;99.90
20829;DHT22;10575;50.124;8.582;2023-07-30T02:37:15;20.40;99.90
20829;DHT22;10575;50.124;8.582;2023-07-30T02:39:40;20.30;99.90
20829;DHT22;10575;50.124;8.582;2023-07-30T02:42:06;20.30;99.90
20829;DHT22;10575;50.124;8.582;2023-07-30T02:44:32;20.20;99.90
20829;DHT22;10575;50.124;8.582;2023-07-30T02:46:57;20.20;99.90
20829;DHT22;10575;50.124;8.582;2023-07-30T02:49:23;20.20;99.90
20829;DHT22;10575;50.124;8.582;2023-07-30T02:51:48;20.10;99.90
20829;DHT22;10575;50.124;8.582;2023-07-30T02:54:14;20.20;99.90
20829;DHT22;10575;50.124;8.582;2023-07-30T02:56:42;20.20;99.90
20829;DHT22;10575;50.124;8.582;2023-07-30T02:59:08;20.30;99.90
20829;DHT22;10575;50.124;8.582;2023-07-30T03:01:33;20.30;99.90
20829;DHT22;10575;50.124;8.582;2023-07-30T03:03:59;20.30;99.90
20829;DHT22;10575;50.124;8.582;2023-07-30T03:06:24;20.30;99.90
20829;DHT22;10575;50.124;8.582;2023-07-30T03:08:50;20.40;99.90
20829;DHT22;10575;50.124;8.582;2023-07-30T03:11:15;20.40;99.90
20829;DHT22;10575;50.124;8.582;2023-07-30T03:13:41;20.40;99.90
20829;DHT22;10575;50.124;8.582;2023-07-30T03:16:06;20.40;99.90
20829;DHT22;10575;50.124;8.582;2023-07-30T03:18:32;20.30;99.90
20829;DHT22;10575;50.124;8.582;2023-07-30T03:20:59;20.30;99.90
20829;DHT22;10575;50.124;8.582;2023-07-30T03:23:30;20.20;99.90
20829;DHT22;10575;50.124;8.582;2023-07-30T03:25:57;20.20;99.90
20829;DHT22;10575;50.124;8.582;2023-07-30T03:28:22;20.10;99.90
20829;DHT22;10575;50.124;8.582;2023-07-30T03:30:48;20.00;99.90
20829;DHT22;10575;50.124;8.582;2023-07-30T03:33:13;19.90;99.90
20829;DHT22;10575;50.124;8.582;2023-07-30T03:35:39;19.80;99.90
20829;DHT22;10575;50.124;8.582;2023-07-30T03:38:14;19.80;99.90
20829;DHT22;10575;50.124;8.582;2023-07-30T03:40:49;19.80;99.90
20829;DHT22;10575;50.124;8.582;2023-07-30T03:43:17;19.90;99.90
20829;DHT22;10575;50.124;8.582;2023-07-30T03:45:43;19.90;99.90
20829;DHT22;10575;50.124;8.582;2023-07-30T03:48:09;19.90;99.90
20829;DHT22;10575;50.124;8.582;2023-07-30T03:50:34;19.90;99.90
20829;DHT22;10575;50.124;8.582;2023-07-30T03:53:00;19.70;99.90
20829;DHT22;10575;50.124;8.582;2023-07-30T03:55:25;19.60;99.90
20829;DHT22;10575;50.124;8.582;2023-07-30T03:57:51;19.50;99.90
20829;DHT22;10575;50.124;8.582;2023-07-30T04:00:16;19.40;99.90
20829;DHT22;10575;50.124;8.582;2023-07-30T04:02:42;19.40;99.90
20829;DHT22;10575;50.124;8.582;2023-07-30T04:05:08;19.30;99.90
20829;DHT22;10575;50.124;8.582;2023-07-30T04:07:33;19.30;99.90
20829;DHT22;10575;50.124;8.582;2023-07-30T04:09:59;19.30;99.90
20829;DHT22;10575;50.124;8.582;2023-07-30T04:12:24;19.40;99.90
20829;DHT22;10575;50.124;8.582;2023-07-30T04:14:50;19.50;99.90
20829;DHT22;10575;50.124;8.582;2023-07-30T04:17:15;19.50;99.90
20829;DHT22;10575;50.124;8.582;2023-07-30T04:19:41;19.60;99.90
20829;DHT22;10575;50.124;8.582;2023-07-30T04:22:06;19.70;99.90
20829;DHT22;10575;50.124;8.582;2023-07-30T04:24:32;19.80;99.90
20829;DHT22;10575;50.124;8.582;2023-07-30T04:26:57;19.80;99.90
20829;DHT22;10575;50.124;8.582;2023-07-30T04:29:23;19.90;99.90
20829;DHT22;10575;50.124;8.582;2023-07-30T04:31:48;19.80;99.90
20829;DHT22;10575;50.124;8.582;2023-07-30T04:34:14;19.80;99.90
20829;DHT22;10575;50.124;8.582;2023-07-30T04:36:40;19.80;99.90
20829;DHT22;10575;50.124;8.582;2023-07-30T04:39:05;19.80;99.90
20829;DHT22;10575;50.124;8.582;2023-07-30T04:41:31;19.80;99.90
20829;DHT22;10575;50.124;8.582;2023-07-30T04:43:56;19.70;99.90
20829;DHT22;10575;50.124;8.582;2023-07-30T04:46:22;19.70;99.90
20829;DHT22;10575;50.124;8.582;2023-07-30T04:48:47;19.70;99.90
20829;DHT22;10575;50.124;8.582;2023-07-30T04:51:13;19.70;99.90
20829;DHT22;10575;50.124;8.582;2023-07-30T04:53:38;19.80;99.90
20829;DHT22;10575;50.124;8.582;2023-07-30T04:56:04;19.80;99.90
20829;DHT22;10575;50.124;8.582;2023-07-30T04:58:36;19.90;99.90
20829;DHT22;10575;50.124;8.582;2023-07-30T05:01:04;19.90;99.90
20829;DHT22;10575;50.124;8.582;2023-07-30T05:03:30;19.90;99.90
20829;DHT22;10575;50.124;8.582;2023-07-30T05:05:56;19.90;99.90
20829;DHT22;10575;50.124;8.582;2023-07-30T05:08:21;19.90;99.90
20829;DHT22;10575;50.124;8.582;2023-07-30T05:10:47;19.90;99.90
20829;DHT22;10575;50.124;8.582;2023-07-30T05:13:13;19.90;99.90
20829;DHT22;10575;50.124;8.582;2023-07-30T05:15:39;20.00;99.90
20829;DHT22;10575;50.124;8.582;2023-07-30T05:18:04;20.20;99.90
20829;DHT22;10575;50.124;8.582;2023-07-30T05:20:30;20.20;99.90
20829;DHT22;10575;50.124;8.582;2023-07-30T05:22:55;20.30;99.90
20829;DHT22;10575;50.124;8.582;2023-07-30T05:25:21;20.40;99.90
20829;DHT22;10575;50.124;8.582;2023-07-30T05:27:46;20.50;99.90
20829;DHT22;10575;50.124;8.582;2023-07-30T05:30:12;20.60;99.90
20829;DHT22;10575;50.124;8.582;2023-07-30T05:32:37;20.70;99.90
20829;DHT22;10575;50.124;8.582;2023-07-30T05:35:03;20.80;99.90
20829;DHT22;10575;50.124;8.582;2023-07-30T05:37:28;20.90;99.90
20829;DHT22;10575;50.124;8.582;2023-07-30T05:39:54;21.10;99.90
20829;DHT22;10575;50.124;8.582;2023-07-30T05:42:19;21.20;99.90
20829;DHT22;10575;50.124;8.582;2023-07-30T05:44:45;21.40;99.90
20829;DHT22;10575;50.124;8.582;2023-07-30T05:49:36;22.10;99.90
20829;DHT22;10575;50.124;8.582;2023-07-30T05:52:02;22.40;99.90
20829;DHT22;10575;50.124;8.582;2023-07-30T05:54:27;22.70;99.90
20829;DHT22;10575;50.124;8.582;2023-07-30T05:56:53;22.90;99.90
20829;DHT22;10575;50.124;8.582;2023-07-30T05:59:19;23.50;99.90
20829;DHT22;10575;50.124;8.582;2023-07-30T06:01:45;24.40;99.90
20829;DHT22;10575;50.124;8.582;2023-07-30T06:04:10;25.60;99.90
20829;DHT22;10575;50.124;8.582;2023-07-30T06:06:36;26.90;99.90
20829;DHT22;10575;50.124;8.582;2023-07-30T06:09:01;27.80;99.90
20829;DHT22;10575;50.124;8.582;2023-07-30T06:11:27;29.00;99.90
20829;DHT22;10575;50.124;8.582;2023-07-30T06:13:53;31.00;99.90
20829;DHT22;10575;50.124;8.582;2023-07-30T06:16:18;32.60;99.90
20829;DHT22;10575;50.124;8.582;2023-07-30T06:18:47;33.50;99.90
20829;DHT22;10575;50.124;8.582;2023-07-30T06:21:13;33.50;99.90
20829;DHT22;10575;50.124;8.582;2023-07-30T06:23:39;33.20;99.90
20829;DHT22;10575;50.124;8.582;2023-07-30T06:26:04;32.90;99.90
20829;DHT22;10575;50.124;8.582;2023-07-30T06:28:30;32.80;99.90
20829;DHT22;10575;50.124;8.582;2023-07-30T06:33:31;31.20;99.90
20829;DHT22;10575;50.124;8.582;2023-07-30T06:35:56;30.40;99.90
20829;DHT22;10575;50.124;8.582;2023-07-30T06:38:22;29.50;99.90
20829;DHT22;10575;50.124;8.582;2023-07-30T06:40:47;28.80;99.90
20829;DHT22;10575;50.124;8.582;2023-07-30T06:43:13;28.10;99.90
20829;DHT22;10575;50.124;8.582;2023-07-30T06:45:38;27.50;99.90
20829;DHT22;10575;50.124;8.582;2023-07-30T06:48:04;26.90;99.90
20829;DHT22;10575;50.124;8.582;2023-07-30T06:50:30;26.70;99.90
20829;DHT22;10575;50.124;8.582;2023-07-30T06:52:55;26.30;99.90
20829;DHT22;10575;50.124;8.582;2023-07-30T06:55:21;26.10;99.90
20829;DHT22;10575;50.124;8.582;2023-07-30T06:57:46;25.80;99.90
20829;DHT22;10575;50.124;8.582;2023-07-30T07:00:12;25.90;99.90
20829;DHT22;10575;50.124;8.582;2023-07-30T07:02:38;25.80;99.90
20829;DHT22;10575;50.124;8.582;2023-07-30T07:05:03;25.60;99.90
20829;DHT22;10575;50.124;8.582;2023-07-30T07:07:30;25.40;99.90
20829;DHT22;10575;50.124;8.582;2023-07-30T07:09:56;25.40;99.90
20829;DHT22;10575;50.124;8.582;2023-07-30T07:12:21;25.40;99.90
20829;DHT22;10575;50.124;8.582;2023-07-30T07:14:47;25.20;99.90
20829;DHT22;10575;50.124;8.582;2023-07-30T07:17:14;24.80;99.90
20829;DHT22;10575;50.124;8.582;2023-07-30T07:19:40;24.40;99.90
20829;DHT22;10575;50.124;8.582;2023-07-30T07:22:05;24.10;99.90
20829;DHT22;10575;50.124;8.582;2023-07-30T07:24:31;24.00;99.90
20829;DHT22;10575;50.124;8.582;2023-07-30T07:26:57;23.90;99.90
20829;DHT22;10575;50.124;8.582;2023-07-30T07:29:23;23.60;99.90
20829;DHT22;10575;50.124;8.582;2023-07-30T07:31:48;23.40;99.90
20829;DHT22;10575;50.124;8.582;2023-07-30T07:34:14;23.30;99.90
20829;DHT22;10575;50.124;8.582;2023-07-30T07:36:39;23.10;99.90
20829;DHT22;10575;50.124;8.582;2023-07-30T07:39:05;23.00;99.90
20829;DHT22;10575;50.124;8.582;2023-07-30T07:41:31;23.20;99.90
20829;DHT22;10575;50.124;8.582;2023-07-30T07:43:57;23.20;99.90
20829;DHT22;10575;50.124;8.582;2023-07-30T07:46:23;23.40;99.90
20829;DHT22;10575;50.124;8.582;2023-07-30T07:48:48;23.70;99.90
20829;DHT22;10575;50.124;8.582;2023-07-30T07:51:14;23.80;99.90
20829;DHT22;10575;50.124;8.582;2023-07-30T07:53:39;24.00;99.90
20829;DHT22;10575;50.124;8.582;2023-07-30T07:56:05;24.30;99.90
20829;DHT22;10575;50.124;8.582;2023-07-30T07:58:31;24.50;99.90
20829;DHT22;10575;50.124;8.582;2023-07-30T08:00:57;24.80;99.90
20829;DHT22;10575;50.124;8.582;2023-07-30T08:03:24;25.20;99.90
20829;DHT22;10575;50.124;8.582;2023-07-30T08:05:52;25.60;99.90
20829;DHT22;10575;50.124;8.582;2023-07-30T08:08:18;25.70;99.90
20829;DHT22;10575;50.124;8.582;2023-07-30T08:10:43;25.60;99.90
20829;DHT22;10575;50.124;8.582;2023-07-30T08:13:11;25.60;99.90
20829;DHT22;10575;50.124;8.582;2023-07-30T08:15:37;25.90;99.90
20829;DHT22;10575;50.124;8.582;2023-07-30T08:18:03;26.20;99.90
20829;DHT22;10575;50.124;8.582;2023-07-30T08:20:28;26.40;99.90
20829;DHT22;10575;50.124;8.582;2023-07-30T08:22:54;26.40;99.90
20829;DHT22;10575;50.124;8.582;2023-07-30T08:25:20;26.40;99.90
20829;DHT22;10575;50.124;8.582;2023-07-30T08:27:45;26.90;99.90
20829;DHT22;10575;50.124;8.582;2023-07-30T08:30:12;28.80;99.90
20829;DHT22;10575;50.124;8.582;2023-07-30T08:32:37;31.20;99.90
20829;DHT22;10575;50.124;8.582;2023-07-30T08:35:04;33.50;99.90
20829;DHT22;10575;50.124;8.582;2023-07-30T08:37:29;35.10;99.60
20829;DHT22;10575;50.124;8.582;2023-07-30T08:39:55;35.00;95.10
20829;DHT22;10575;50.124;8.582;2023-07-30T08:42:21;34.10;95.50
20829;DHT22;10575;50.124;8.582;2023-07-30T08:44:47;32.80;95.80
20829;DHT22;10575;50.124;8.582;2023-07-30T08:47:13;31.90;96.70
20829;DHT22;10575;50.124;8.582;2023-07-30T08:49:38;31.20;98.30
20829;DHT22;10575;50.124;8.582;2023-07-30T08:52:06;30.30;99.00
20829;DHT22;10575;50.124;8.582;2023-07-30T08:54:33;29.40;99.90
20829;DHT22;10575;50.124;8.582;2023-07-30T08:56:59;28.70;99.90
20829;DHT22;10575;50.124;8.582;2023-07-30T08:59:27;28.20;99.90
20829;DHT22;10575;50.124;8.582;2023-07-30T09:01:54;27.80;99.90
20829;DHT22;10575;50.124;8.582;2023-07-30T09:04:21;27.40;99.90
20829;DHT22;10575;50.124;8.582;2023-07-30T09:06:49;27.10;99.90
20829;DHT22;10575;50.124;8.582;2023-07-30T09:09:15;26.70;99.90
20829;DHT22;10575;50.124;8.582;2023-07-30T09:11:41;26.70;99.90
20829;DHT22;10575;50.124;8.582;2023-07-30T09:14:06;26.70;99.90
20829;DHT22;10575;50.124;8.582;2023-07-30T09:16:33;26.60;99.90
20829;DHT22;10575;50.124;8.582;2023-07-30T09:18:59;26.90;99.90
20829;DHT22;10575;50.124;8.582;2023-07-30T09:21:32;27.00;99.90
20829;DHT22;10575;50.124;8.582;2023-07-30T09:23:58;27.00;99.90
20829;DHT22;10575;50.124;8.582;2023-07-30T09:26:41;26.80;99.90
20829;DHT22;10575;50.124;8.582;2023-07-30T09:29:08;26.20;99.90
20829;DHT22;10575;50.124;8.582;2023-07-30T09:31:49;25.60;99.90
20829;DHT22;10575;50.124;8.582;2023-07-30T09:34:21;25.20;99.90
20829;DHT22;10575;50.124;8.582;2023-07-30T09:36:49;24.50;99.90
20829;DHT22;10575;50.124;8.582;2023-07-30T09:39:25;24.20;99.90
20829;DHT22;10575;50.124;8.582;2023-07-30T09:41:59;23.50;99.90
20829;DHT22;10575;50.124;8.582;2023-07-30T09:44:25;23.00;99.90
20829;DHT22;10575;50.124;8.582;2023-07-30T09:46:51;22.50;99.90
20829;DHT22;10575;50.124;8.582;2023-07-30T09:49:18;21.70;99.90
20829;DHT22;10575;50.124;8.582;2023-07-30T09:51:44;21.00;99.90
20829;DHT22;10575;50.124;8.582;2023-07-30T09:54:11;20.20;99.90
20829;DHT22;10575;50.124;8.582;2023-07-30T09:56:38;19.80;99.90
20829;DHT22;10575;50.124;8.582;2023-07-30T09:59:08;19.60;99.90
20829;DHT22;10575;50.124;8.582;2023-07-30T10:01:43;19.80;99.90
20829;DHT22;10575;50.124;8.582;2023-07-30T10:04:09;20.20;99.90
20829;DHT22;10575;50.124;8.582;2023-07-30T10:06:39;20.50;99.90
20829;DHT22;10575;50.124;8.582;2023-07-30T10:09:07;20.80;99.90
20829;DHT22;10575;50.124;8.582;2023-07-30T10:11:34;20.80;99.90
20829;DHT22;10575;50.124;8.582;2023-07-30T10:14:01;20.90;99.90
20829;DHT22;10575;50.124;8.582;2023-07-30T10:16:31;20.80;99.90
20829;DHT22;10575;50.124;8.582;2023-07-30T10:18:57;20.80;99.90
20829;DHT22;10575;50.124;8.582;2023-07-30T10:21:24;20.90;99.90
20829;DHT22;10575;50.124;8.582;2023-07-30T10:24:04;21.00;99.90
20829;DHT22;10575;50.124;8.582;2023-07-30T10:26:34;21.20;99.90
20829;DHT22;10575;50.124;8.582;2023-07-30T10:29:18;21.50;99.90
20829;DHT22;10575;50.124;8.582;2023-07-30T10:36:55;22.40;99.90
20829;DHT22;10575;50.124;8.582;2023-07-30T10:41:58;23.20;99.90
20829;DHT22;10575;50.124;8.582;2023-07-30T10:44:31;24.00;99.90
20829;DHT22;10575;50.124;8.582;2023-07-30T10:46:58;24.20;99.90
20829;DHT22;10575;50.124;8.582;2023-07-30T10:49:24;24.30;99.90
20829;DHT22;10575;50.124;8.582;2023-07-30T11:48:47;23.20;99.90
20829;DHT22;10575;50.124;8.582;2023-07-30T11:53:53;22.70;99.90
20829;DHT22;10575;50.124;8.582;2023-07-30T11:56:21;22.90;99.90
20829;DHT22;10575;50.124;8.582;2023-07-30T11:58:48;23.20;99.90
20829;DHT22;10575;50.124;8.582;2023-07-30T12:01:15;23.30;99.90
20829;DHT22;10575;50.124;8.582;2023-07-30T12:03:41;23.50;99.90
20829;DHT22;10575;50.124;8.582;2023-07-30T12:06:08;23.70;99.90
20829;DHT22;10575;50.124;8.582;2023-07-30T12:08:34;24.00;99.90
20829;DHT22;10575;50.124;8.582;2023-07-30T12:11:04;24.40;99.90
20829;DHT22;10575;50.124;8.582;2023-07-30T12:13:30;24.50;99.90
20829;DHT22;10575;50.124;8.582;2023-07-30T12:15:56;23.70;99.90
20829;DHT22;10575;50.124;8.582;2023-07-30T12:18:24;23.20;99.90
20829;DHT22;10575;50.124;8.582;2023-07-30T12:20:51;22.90;99.90
20829;DHT22;10575;50.124;8.582;2023-07-30T12:23:21;22.80;99.90
20829;DHT22;10575;50.124;8.582;2023-07-30T12:25:47;22.70;99.90
20829;DHT22;10575;50.124;8.582;2023-07-30T12:28:13;22.70;99.90
20829;DHT22;10575;50.124;8.582;2023-07-30T12:30:39;22.80;99.90
20829;DHT22;10575;50.124;8.582;2023-07-30T12:33:05;22.90;99.90
20829;DHT22;10575;50.124;8.582;2023-07-30T12:35:32;23.10;99.90
20829;DHT22;10575;50.124;8.582;2023-07-30T12:37:58;23.40;99.90
20829;DHT22;10575;50.124;8.582;2023-07-30T12:40:24;23.60;99.90
20829;DHT22;10575;50.124;8.582;2023-07-30T12:42:50;23.60;99.90
20829;DHT22;10575;50.124;8.582;2023-07-30T12:47:48;24.10;99.90
20829;DHT22;10575;50.124;8.582;2023-07-30T12:50:14;24.00;99.90
20829;DHT22;10575;50.124;8.582;2023-07-30T12:52:40;23.80;99.90
20829;DHT22;10575;50.124;8.582;2023-07-30T12:55:05;23.70;99.90
20829;DHT22;10575;50.124;8.582;2023-07-30T12:57:31;23.70;99.90
20829;DHT22;10575;50.124;8.582;2023-07-30T12:59:57;23.40;99.90
20829;DHT22;10575;50.124;8.582;2023-07-30T13:07:33;22.90;99.90
20829;DHT22;10575;50.124;8.582;2023-07-30T13:10:07;23.20;99.90
20829;DHT22;10575;50.124;8.582;2023-07-30T13:17:43;23.30;99.90
20829;DHT22;10575;50.124;8.582;2023-07-30T13:20:09;23.20;99.90
20829;DHT22;10575;50.124;8.582;2023-07-30T13:22:35;23.50;99.90
20829;DHT22;10575;50.124;8.582;2023-07-30T13:25:01;23.70;99.90
20829;DHT22;10575;50.124;8.582;2023-07-30T13:27:26;23.80;99.90
20829;DHT22;10575;50.124;8.582;2023-07-30T13:29:52;24.20;99.90
20829;DHT22;10575;50.124;8.582;2023-07-30T13:32:18;24.40;99.90
20829;DHT22;10575;50.124;8.582;2023-07-30T13:34:43;24.50;99.90
20829;DHT22;10575;50.124;8.582;2023-07-30T13:37:09;24.60;99.90
20829;DHT22;10575;50.124;8.582;2023-07-30T13:39:35;24.60;99.90
20829;DHT22;10575;50.124;8.582;2023-07-30T13:42:00;24.40;99.90
20829;DHT22;10575;50.124;8.582;2023-07-30T13:44:26;24.30;99.90
20829;DHT22;10575;50.124;8.582;2023-07-30T13:46:52;24.30;99.90
20829;DHT22;10575;50.124;8.582;2023-07-30T13:49:19;24.30;99.90
20829;DHT22;10575;50.124;8.582;2023-07-30T13:51:44;24.60;99.90
20829;DHT22;10575;50.124;8.582;2023-07-30T13:54:10;24.80;99.90
20829;DHT22;10575;50.124;8.582;2023-07-30T13:56:36;24.90;99.90
20829;DHT22;10575;50.124;8.582;2023-07-30T13:59:04;25.10;99.90
20829;DHT22;10575;50.124;8.582;2023-07-30T14:01:29;25.30;99.90
20829;DHT22;10575;50.124;8.582;2023-07-30T14:03:55;25.40;99.90
20829;DHT22;10575;50.124;8.582;2023-07-30T14:06:21;25.20;99.90
20829;DHT22;10575;50.124;8.582;2023-07-30T14:08:46;24.90;99.90
20829;DHT22;10575;50.124;8.582;2023-07-30T14:11:12;24.80;99.90
20829;DHT22;10575;50.124;8.582;2023-07-30T14:13:38;24.50;99.90
20829;DHT22;10575;50.124;8.582;2023-07-30T14:16:03;24.20;99.90
20829;DHT22;10575;50.124;8.582;2023-07-30T14:18:29;23.80;99.90
20829;DHT22;10575;50.124;8.582;2023-07-30T14:20:55;23.90;99.90
20829;DHT22;10575;50.124;8.582;2023-07-30T14:25:56;24.20;99.90
20829;DHT22;10575;50.124;8.582;2023-07-30T14:28:21;24.30;99.90
20829;DHT22;10575;50.124;8.582;2023-07-30T14:30:47;24.10;99.90
20829;DHT22;10575;50.124;8.582;2023-07-30T14:33:13;24.00;99.90
20829;DHT22;10575;50.124;8.582;2023-07-30T14:35:39;24.00;99.90
20829;DHT22;10575;50.124;8.582;2023-07-30T14:40:42;23.70;99.90
20829;DHT22;10575;50.124;8.582;2023-07-30T14:43:08;23.70;99.90
20829;DHT22;10575;50.124;8.582;2023-07-30T14:45:34;23.60;99.90
20829;DHT22;10575;50.124;8.582;2023-07-30T14:50:35;23.70;99.90
20829;DHT22;10575;50.124;8.582;2023-07-30T14:53:00;23.70;99.90
20829;DHT22;10575;50.124;8.582;2023-07-30T14:55:26;23.50;99.90
20829;DHT22;10575;50.124;8.582;2023-07-30T14:57:52;23.50;99.90
20829;DHT22;10575;50.124;8.582;2023-07-30T15:00:18;23.70;99.90
20829;DHT22;10575;50.124;8.582;2023-07-30T15:02:43;24.10;99.90
20829;DHT22;10575;50.124;8.582;2023-07-30T15:05:09;24.10;99.90
20829;DHT22;10575;50.124;8.582;2023-07-30T15:07:35;24.00;99.90
20829;DHT22;10575;50.124;8.582;2023-07-30T15:10:00;24.00;99.90
20829;DHT22;10575;50.124;8.582;2023-07-30T15:12:26;23.80;99.90
20829;DHT22;10575;50.124;8.582;2023-07-30T15:14:52;23.80;99.90
20829;DHT22;10575;50.124;8.582;2023-07-30T15:17:17;23.70;99.90
20829;DHT22;10575;50.124;8.582;2023-07-30T15:19:43;23.70;99.90
20829;DHT22;10575;50.124;8.582;2023-07-30T15:22:12;23.30;99.90
20829;DHT22;10575;50.124;8.582;2023-07-30T15:24:38;23.20;99.90
20829;DHT22;10575;50.124;8.582;2023-07-30T15:27:04;23.00;99.90
20829;DHT22;10575;50.124;8.582;2023-07-30T15:29:30;23.10;99.90
20829;DHT22;10575;50.124;8.582;2023-07-30T15:31:55;23.20;99.90
20829;DHT22;10575;50.124;8.582;2023-07-30T15:34:22;23.20;99.90
20829;DHT22;10575;50.124;8.582;2023-07-30T15:36:48;23.00;99.90
20829;DHT22;10575;50.124;8.582;2023-07-30T15:39:13;22.90;99.90
20829;DHT22;10575;50.124;8.582;2023-07-30T15:41:39;23.00;99.90
20829;DHT22;10575;50.124;8.582;2023-07-30T15:44:04;22.90;99.90
20829;DHT22;10575;50.124;8.582;2023-07-30T15:46:30;22.90;99.90
20829;DHT22;10575;50.124;8.582;2023-07-30T15:48:56;22.90;99.90
20829;DHT22;10575;50.124;8.582;2023-07-30T15:51:21;22.90;99.90
20829;DHT22;10575;50.124;8.582;2023-07-30T15:53:49;23.00;99.90
20829;DHT22;10575;50.124;8.582;2023-07-30T15:56:15;23.10;99.90
20829;DHT22;10575;50.124;8.582;2023-07-30T15:58:40;23.10;99.90
20829;DHT22;10575;50.124;8.582;2023-07-30T16:01:07;23.00;99.90
20829;DHT22;10575;50.124;8.582;2023-07-30T16:03:35;23.00;99.90
20829;DHT22;10575;50.124;8.582;2023-07-30T16:06:03;23.00;99.90
20829;DHT22;10575;50.124;8.582;2023-07-30T16:08:31;22.90;99.90
20829;DHT22;10575;50.124;8.582;2023-07-30T16:11:04;22.90;99.90
20829;DHT22;10575;50.124;8.582;2023-07-30T16:13:30;22.80;99.90
20829;DHT22;10575;50.124;8.582;2023-07-30T16:15:56;22.80;99.90
20829;DHT22;10575;50.124;8.582;2023-07-30T16:18:21;22.80;99.90
20829;DHT22;10575;50.124;8.582;2023-07-30T16:20:47;22.60;99.90
20829;DHT22;10575;50.124;8.582;2023-07-30T16:23:12;22.70;99.90
20829;DHT22;10575;50.124;8.582;2023-07-30T16:25:38;22.70;99.90
20829;DHT22;10575;50.124;8.582;2023-07-30T16:28:03;22.70;99.90
20829;DHT22;10575;50.124;8.582;2023-07-30T16:30:29;22.60;99.90
20829;DHT22;10575;50.124;8.582;2023-07-30T16:32:54;22.50;99.90
20829;DHT22;10575;50.124;8.582;2023-07-30T16:35:20;22.40;99.90
20829;DHT22;10575;50.124;8.582;2023-07-30T16:37:45;22.20;99.90
20829;DHT22;10575;50.124;8.582;2023-07-30T16:40:11;22.10;99.90
20829;DHT22;10575;50.124;8.582;2023-07-30T16:42:37;22.00;99.90
20829;DHT22;10575;50.124;8.582;2023-07-30T16:45:03;22.00;99.90
20829;DHT22;10575;50.124;8.582;2023-07-30T16:47:28;22.00;99.90
20829;DHT22;10575;50.124;8.582;2023-07-30T16:49:54;22.10;99.90
20829;DHT22;10575;50.124;8.582;2023-07-30T16:52:19;22.20;99.90
20829;DHT22;10575;50.124;8.582;2023-07-30T16:54:45;22.20;99.90
20829;DHT22;10575;50.124;8.582;2023-07-30T16:57:10;22.20;99.90
20829;DHT22;10575;50.124;8.582;2023-07-30T16:59:36;22.10;99.90